Time;durP1;ratioP1;P1;durP2;ratioP2;P2;SDS_P1;SDS_P2;PMS_P1;PMS_P2;Temp;Humidity;BMP_temperature;BMP_pressure;BME280_temperature;BME280_humidity;BME280_pressure;Samples;Min_cycle;Max_cycle;Signal;HPM_P1;HPM_P2
2023/03/18 00:00:39;;;;;;;3.93;2.30;;;1.50;90.50;;;;;;4976845;28;20178;-78
2023/03/18 00:03:05;;;;;;;3.43;2.40;;;1.50;90.50;;;;;;4975304;28;20188;-78
2023/03/18 00:05:33;;;;;;;2.00;1.90;;;1.50;90.40;;;;;;4979381;28;21746;-78
2023/03/18 00:07:59;;;;;;;2.47;2.27;;;1.50;90.40;;;;;;4974566;28;20233;-78
2023/03/18 00:10:25;;;;;;;2.50;2.30;;;1.50;90.40;;;;;;4978233;28;20203;-78
2023/03/18 00:12:53;;;;;;;1.53;1.43;;;1.50;90.40;;;;;;4977118;28;20186;-78
2023/03/18 00:15:19;;;;;;;2.50;2.27;;;1.50;90.40;;;;;;4972931;28;20191;-78
2023/03/18 00:17:47;;;;;;;2.10;1.50;;;1.50;90.40;;;;;;4976278;28;20193;-78
2023/03/18 00:20:15;;;;;;;3.13;1.73;;;1.50;90.40;;;;;;4977822;28;20178;-78
2023/03/18 00:22:42;;;;;;;2.43;2.23;;;1.50;90.30;;;;;;4979124;28;20178;-77
2023/03/18 00:25:11;;;;;;;6.10;2.90;;;1.40;90.40;;;;;;4973925;28;20582;-77
2023/03/18 00:27:38;;;;;;;3.53;2.63;;;1.40;90.40;;;;;;4974621;28;20257;-77
2023/03/18 00:30:05;;;;;;;6.63;3.03;;;1.40;90.50;;;;;;4973716;28;20182;-78
2023/03/18 00:32:31;;;;;;;3.43;2.93;;;1.40;90.50;;;;;;4980261;28;20710;-77
2023/03/18 00:34:57;;;;;;;6.80;3.17;;;1.40;90.60;;;;;;4977770;28;20186;-78
2023/03/18 00:37:30;;;;;;;5.53;3.77;;;1.40;90.80;;;;;;4975130;28;20205;-77
2023/03/18 00:40:05;;;;;;;4.27;3.40;;;1.30;90.90;;;;;;4980885;28;20240;-77
2023/03/18 00:42:38;;;;;;;5.97;3.37;;;1.30;91.20;;;;;;4974626;28;20204;-78
2023/03/18 00:45:06;;;;;;;6.40;4.00;;;1.20;91.30;;;;;;4976903;28;20189;-77
2023/03/18 00:47:33;;;;;;;7.23;4.30;;;1.20;91.50;;;;;;4976235;28;20736;-77
2023/03/18 00:49:58;;;;;;;5.87;3.80;;;1.20;91.70;;;;;;4979349;28;20196;-77
2023/03/18 00:52:24;;;;;;;10.83;3.73;;;1.10;91.70;;;;;;4977852;28;20739;-77
2023/03/18 00:54:50;;;;;;;5.10;3.20;;;1.10;91.80;;;;;;4974919;28;20546;-78
2023/03/18 00:57:16;;;;;;;5.47;4.00;;;1.10;91.80;;;;;;4980849;28;20190;-77
2023/03/18 00:59:42;;;;;;;7.23;3.60;;;1.10;92.20;;;;;;4974353;28;20240;-77
2023/03/18 01:02:08;;;;;;;3.70;3.40;;;1.10;92.10;;;;;;4975126;28;20197;-77
2023/03/18 01:04:33;;;;;;;4.17;3.43;;;1.00;92.20;;;;;;4980997;28;20185;-78
2023/03/18 01:07:00;;;;;;;5.57;3.27;;;1.00;92.30;;;;;;4983907;28;20690;-77
2023/03/18 01:09:26;;;;;;;5.40;3.60;;;1.00;92.40;;;;;;4976820;28;20623;-77
2023/03/18 01:11:51;;;;;;;4.80;3.67;;;1.00;92.70;;;;;;4976676;28;20267;-78
2023/03/18 01:14:18;;;;;;;8.93;4.60;;;1.00;92.70;;;;;;4979624;28;20273;-78
2023/03/18 01:16:45;;;;;;;5.97;3.87;;;1.00;92.80;;;;;;4979944;28;20544;-77
2023/03/18 01:19:12;;;;;;;9.57;3.77;;;1.00;92.80;;;;;;4980707;28;20177;-77
2023/03/18 01:21:38;;;;;;;7.13;4.30;;;0.90;92.80;;;;;;4979164;28;20186;-78
2023/03/18 01:24:04;;;;;;;7.37;4.77;;;0.90;92.80;;;;;;4980870;28;20576;-77
2023/03/18 01:26:30;;;;;;;5.43;3.77;;;0.90;92.80;;;;;;4975799;28;20612;-77
2023/03/18 01:28:56;;;;;;;8.43;4.07;;;0.90;92.80;;;;;;4981998;28;20251;-77
2023/03/18 01:31:24;;;;;;;8.23;4.20;;;0.90;92.80;;;;;;4981124;28;20209;-77
2023/03/18 01:33:51;;;;;;;3.63;3.37;;;0.90;92.80;;;;;;4978466;28;20190;-77
2023/03/18 01:36:17;;;;;;;3.93;3.60;;;0.90;92.70;;;;;;4975728;28;20197;-77
2023/03/18 01:38:42;;;;;;;6.00;3.60;;;0.90;92.70;;;;;;4979289;28;20186;-78
2023/03/18 01:41:09;;;;;;;4.83;3.63;;;0.90;92.80;;;;;;4980005;28;20267;-77
2023/03/18 01:43:39;;;;;;;5.50;3.70;;;0.90;92.70;;;;;;4977732;28;20190;-78
2023/03/18 01:46:32;;;;;;;3.27;3.00;;;0.90;92.70;;;;;;4978005;28;20232;-77
2023/03/18 01:49:01;;;;;;;3.77;2.53;;;0.90;92.70;;;;;;4975632;28;20194;-77
2023/03/18 01:51:28;;;;;;;4.83;2.87;;;0.90;92.70;;;;;;4976471;28;20232;-78
2023/03/18 01:53:56;;;;;;;3.93;3.60;;;0.90;92.80;;;;;;4976216;28;20186;-78
2023/03/18 01:56:22;;;;;;;4.73;3.87;;;0.80;92.70;;;;;;4977345;28;20193;-78
2023/03/18 01:58:56;;;;;;;4.30;2.77;;;0.80;92.70;;;;;;4979203;28;20232;-78
2023/03/18 02:01:35;;;;;;;2.83;2.63;;;0.80;92.70;;;;;;4978731;28;20206;-78
2023/03/18 02:04:04;;;;;;;3.90;3.17;;;0.80;92.70;;;;;;4974140;28;20196;-77
2023/03/18 02:06:30;;;;;;;4.43;2.80;;;0.80;92.80;;;;;;4979296;28;20214;-78
2023/03/18 02:08:56;;;;;;;3.40;2.73;;;0.80;92.80;;;;;;4977118;28;20190;-78
2023/03/18 02:11:22;;;;;;;4.20;3.13;;;0.80;92.90;;;;;;4978215;28;20190;-78
2023/03/18 02:13:49;;;;;;;3.40;2.63;;;0.80;92.90;;;;;;4975990;28;20271;-78
2023/03/18 02:16:26;;;;;;;2.73;2.53;;;0.70;93.10;;;;;;4974029;28;20182;-78
2023/03/18 02:19:00;;;;;;;5.23;3.10;;;0.70;93.10;;;;;;4973452;28;20252;-77
2023/03/18 02:21:40;;;;;;;3.27;2.87;;;0.70;93.10;;;;;;4978917;28;20194;-78
2023/03/18 02:24:32;;;;;;;3.13;2.00;;;0.70;93.10;;;;;;4977738;28;20206;-78
2023/03/18 02:27:22;;;;;;;2.57;2.37;;;0.70;93.10;;;;;;4975380;28;20226;-77
2023/03/18 02:30:00;;;;;;;2.70;2.20;;;0.70;93.20;;;;;;4970791;28;20242;-77
2023/03/18 02:32:31;;;;;;;3.40;3.10;;;0.70;93.30;;;;;;4974616;28;20207;-77
2023/03/18 02:35:00;;;;;;;2.73;2.10;;;0.70;93.20;;;;;;4979372;28;20209;-77
2023/03/18 02:37:26;;;;;;;3.87;3.00;;;0.60;93.30;;;;;;4976903;28;20834;-78
2023/03/18 02:39:52;;;;;;;7.23;3.60;;;0.60;93.40;;;;;;4978740;28;20209;-78
2023/03/18 02:42:31;;;;;;;3.60;3.30;;;0.60;93.50;;;;;;4977015;28;20201;-77
2023/03/18 02:44:57;;;;;;;3.20;2.70;;;0.60;93.50;;;;;;4974345;28;20616;-76
2023/03/18 02:47:25;;;;;;;6.63;2.70;;;0.50;93.60;;;;;;4979266;28;20304;-78
2023/03/18 02:49:51;;;;;;;2.57;2.37;;;0.60;93.60;;;;;;4980472;28;20217;-77
2023/03/18 02:52:16;;;;;;;4.07;3.30;;;0.60;93.60;;;;;;4975231;28;20670;-77
2023/03/18 02:54:42;;;;;;;8.03;2.40;;;0.50;93.70;;;;;;4977100;28;20213;-76
2023/03/18 02:57:08;;;;;;;3.07;2.77;;;0.50;93.80;;;;;;4975590;28;20292;-77
2023/03/18 02:59:34;;;;;;;7.17;3.20;;;0.50;93.80;;;;;;4973338;28;20205;-77
2023/03/18 03:02:00;;;;;;;10.77;2.53;;;0.50;93.60;;;;;;4972085;28;20189;-78
2023/03/18 03:04:26;;;;;;;2.30;2.03;;;0.50;93.60;;;;;;4972925;28;20190;-77
2023/03/18 03:06:53;;;;;;;3.37;2.30;;;0.50;93.60;;;;;;4973316;28;20806;-77
2023/03/18 03:09:21;;;;;;;3.33;2.47;;;0.50;93.50;;;;;;4976791;28;20178;-78
2023/03/18 03:11:48;;;;;;;5.57;2.70;;;0.40;93.50;;;;;;4974887;28;20241;-78
2023/03/18 03:14:15;;;;;;;6.27;3.30;;;0.40;93.50;;;;;;4977188;28;20292;-78
2023/03/18 03:16:40;;;;;;;3.20;2.90;;;0.40;93.50;;;;;;4980674;28;20217;-77
2023/03/18 03:19:07;;;;;;;3.57;2.40;;;0.40;93.50;;;;;;4980952;28;20595;-78
2023/03/18 03:21:34;;;;;;;5.33;3.47;;;0.40;93.70;;;;;;4977379;28;20401;-78
2023/03/18 03:24:02;;;;;;;3.60;2.40;;;0.30;93.70;;;;;;4997303;28;20284;-78
2023/03/18 03:26:29;;;;;;;4.67;3.00;;;0.30;93.70;;;;;;4976763;28;20221;-78
2023/03/18 03:28:55;;;;;;;3.73;2.87;;;0.30;93.70;;;;;;4977832;28;20213;-78
2023/03/18 03:31:22;;;;;;;6.37;3.30;;;0.20;93.70;;;;;;4974914;28;20209;-77
2023/03/18 03:33:48;;;;;;;3.37;3.10;;;0.20;93.70;;;;;;4983381;28;20213;-77
2023/03/18 03:36:15;;;;;;;3.67;2.93;;;0.20;93.80;;;;;;4979186;28;20205;-76
2023/03/18 03:38:42;;;;;;;6.13;2.67;;;0.20;93.80;;;;;;4976734;28;20197;-77
2023/03/18 03:41:10;;;;;;;5.03;3.87;;;0.20;93.90;;;;;;4977606;28;20740;-77
2023/03/18 03:43:39;;;;;;;7.10;3.60;;;0.10;94.00;;;;;;4977603;28;20576;-77
2023/03/18 03:46:06;;;;;;;9.03;3.60;;;0.10;94.00;;;;;;4975874;28;20213;-77
2023/03/18 03:48:32;;;;;;;3.27;3.00;;;0.10;94.00;;;;;;4976676;28;20261;-79
2023/03/18 03:50:58;;;;;;;6.80;3.70;;;0.10;94.00;;;;;;4981464;28;20268;-79
2023/03/18 03:53:24;;;;;;;6.30;3.47;;;0.10;94.00;;;;;;4974101;28;20587;-79
2023/03/18 03:55:50;;;;;;;4.50;3.63;;;0.10;94.00;;;;;;4979179;28;20182;-76
2023/03/18 03:58:16;;;;;;;9.57;4.60;;;0.10;94.00;;;;;;4974957;28;20174;-77
2023/03/18 04:00:42;;;;;;;3.30;3.10;;;0.10;94.00;;;;;;4977023;28;20205;-77
2023/03/18 04:03:08;;;;;;;3.43;2.67;;;0.10;94.10;;;;;;4979346;28;20190;-77
2023/03/18 04:05:33;;;;;;;3.40;3.13;;;0.10;94.20;;;;;;4978299;28;20831;-77
2023/03/18 04:07:59;;;;;;;4.57;2.97;;;0.00;94.30;;;;;;4981763;28;20285;-78
2023/03/18 04:10:26;;;;;;;2.67;2.50;;;0.00;94.30;;;;;;4979987;28;20186;-77
2023/03/18 04:12:53;;;;;;;4.33;3.10;;;0.00;94.30;;;;;;4980206;28;20190;-77
2023/03/18 04:15:20;;;;;;;4.20;3.27;;;0.00;94.30;;;;;;4977196;28;20174;-77
2023/03/18 04:17:48;;;;;;;3.80;2.37;;;0.00;94.30;;;;;;4984874;28;20187;-77
2023/03/18 04:20:15;;;;;;;3.27;2.70;;;0.00;94.30;;;;;;4976970;28;20188;-77
2023/03/18 04:22:42;;;;;;;2.83;2.63;;;0.00;94.30;;;;;;4976928;28;20319;-79
2023/03/18 04:25:09;;;;;;;4.00;3.27;;;0.00;94.40;;;;;;4982109;28;20272;-77
2023/03/18 04:27:36;;;;;;;4.90;2.37;;;0.00;94.30;;;;;;4973761;28;20272;-77
2023/03/18 04:30:03;;;;;;;3.97;3.53;;;0.00;94.40;;;;;;4976448;28;20192;-77
2023/03/18 04:32:29;;;;;;;5.47;3.10;;;-0.10;94.50;;;;;;4976870;28;20601;-77
2023/03/18 04:34:55;;;;;;;2.97;2.70;;;-0.10;94.60;;;;;;4980137;28;20189;-78
2023/03/18 04:37:21;;;;;;;7.20;3.40;;;-0.10;94.50;;;;;;4975078;28;20189;-78
2023/03/18 04:39:47;;;;;;;3.67;3.17;;;-0.10;94.50;;;;;;4974055;28;20186;-78
2023/03/18 04:42:13;;;;;;;3.40;2.50;;;-0.10;94.60;;;;;;4978137;28;20195;-78
2023/03/18 04:44:39;;;;;;;5.13;2.13;;;-0.10;94.70;;;;;;4976229;28;20197;-78
2023/03/18 04:47:06;;;;;;;3.23;2.33;;;-0.10;94.70;;;;;;4977143;28;20273;-78
2023/03/18 04:49:33;;;;;;;2.43;2.10;;;-0.10;94.70;;;;;;4977022;28;20175;-78
2023/03/18 04:51:59;;;;;;;4.13;2.43;;;-0.10;94.70;;;;;;4979545;28;20974;-77
2023/03/18 04:54:25;;;;;;;2.73;1.77;;;-0.10;94.80;;;;;;4975199;28;20225;-78
2023/03/18 04:56:51;;;;;;;2.13;2.03;;;-0.10;94.90;;;;;;4976538;28;20182;-78
2023/03/18 04:59:17;;;;;;;2.80;2.60;;;-0.10;94.90;;;;;;4980141;28;20220;-78
2023/03/18 05:01:42;;;;;;;1.40;1.37;;;-0.10;94.90;;;;;;4977565;28;20185;-78
2023/03/18 05:04:09;;;;;;;4.30;2.40;;;-0.10;94.90;;;;;;4977161;28;20188;-77
2023/03/18 05:06:36;;;;;;;1.77;1.67;;;0.00;94.90;;;;;;4979642;28;20213;-78
2023/03/18 05:09:04;;;;;;;4.17;1.67;;;0.00;95.00;;;;;;4972278;28;20934;-78
2023/03/18 05:11:30;;;;;;;4.80;2.53;;;0.00;95.00;;;;;;4976691;28;20232;-77
2023/03/18 05:13:56;;;;;;;3.63;2.03;;;0.00;95.10;;;;;;4981853;28;20260;-78
2023/03/18 05:16:23;;;;;;;1.80;1.70;;;0.00;95.10;;;;;;4981120;28;20280;-78
2023/03/18 05:18:49;;;;;;;2.87;1.57;;;0.10;95.20;;;;;;4974587;28;20225;-78
2023/03/18 05:21:15;;;;;;;1.10;1.10;;;0.10;95.00;;;;;;4972795;28;21021;-79
2023/03/18 05:23:41;;;;;;;1.13;1.13;;;0.10;94.90;;;;;;4977911;28;20209;-78
2023/03/18 05:26:08;;;;;;;1.30;1.17;;;0.20;94.50;;;;;;4974129;28;20300;-78
2023/03/18 05:28:34;;;;;;;2.50;1.50;;;0.20;94.60;;;;;;4976889;28;20590;-78
2023/03/18 05:31:00;;;;;;;3.37;1.30;;;0.20;94.60;;;;;;4978848;28;20244;-78
2023/03/18 05:33:26;;;;;;;1.60;1.00;;;0.20;94.60;;;;;;4979156;28;20209;-78
2023/03/18 05:35:51;;;;;;;4.13;2.20;;;0.30;94.70;;;;;;4973906;28;20209;-78
2023/03/18 05:38:18;;;;;;;2.00;1.77;;;0.30;94.70;;;;;;4978087;28;20775;-78
2023/03/18 05:40:44;;;;;;;1.57;1.43;;;0.30;94.80;;;;;;4978175;28;20269;-79
2023/03/18 05:43:10;;;;;;;8.53;1.63;;;0.40;94.80;;;;;;4981483;28;20822;-78
2023/03/18 05:45:36;;;;;;;1.57;1.47;;;0.40;94.90;;;;;;4976594;28;20206;-77
2023/03/18 05:48:02;;;;;;;2.00;1.90;;;0.50;94.90;;;;;;4975598;28;20253;-78
2023/03/18 05:50:34;;;;;;;2.33;2.07;;;0.50;94.90;;;;;;4976967;28;20192;-78
2023/03/18 05:53:00;;;;;;;3.03;1.80;;;0.60;94.80;;;;;;4972818;28;20189;-75
2023/03/18 05:55:27;;;;;;;2.93;2.00;;;0.70;94.80;;;;;;4976399;28;20182;-75
2023/03/18 05:57:53;;;;;;;2.40;2.23;;;0.70;94.80;;;;;;4975894;28;20201;-75
2023/03/18 06:00:19;;;;;;;4.20;2.40;;;0.80;94.90;;;;;;4972313;28;20186;-75
2023/03/18 06:02:46;;;;;;;18.80;2.00;;;0.90;94.80;;;;;;4978623;28;20779;-75
2023/03/18 06:05:12;;;;;;;2.80;2.60;;;0.90;94.80;;;;;;4972454;28;20249;-75
2023/03/18 06:07:40;;;;;;;2.83;1.80;;;1.00;94.70;;;;;;4973677;28;20220;-74
2023/03/18 06:10:06;;;;;;;3.87;2.13;;;1.10;94.70;;;;;;4975679;28;20177;-74
2023/03/18 06:12:32;;;;;;;3.53;2.67;;;1.20;94.70;;;;;;4976129;28;20189;-74
2023/03/18 06:14:58;;;;;;;3.90;2.43;;;1.20;94.70;;;;;;4973286;28;20277;-75
2023/03/18 06:17:24;;;;;;;2.97;2.70;;;1.30;94.60;;;;;;4976966;28;20264;-75
2023/03/18 06:19:50;;;;;;;6.00;3.90;;;1.40;94.50;;;;;;4976023;28;20189;-75
2023/03/18 06:22:16;;;;;;;4.10;3.53;;;1.40;94.30;;;;;;4977619;28;20569;-75
2023/03/18 06:24:42;;;;;;;4.63;4.23;;;1.50;94.20;;;;;;4975448;28;20656;-75
2023/03/18 06:27:08;;;;;;;3.67;3.47;;;1.60;94.10;;;;;;4979859;28;20213;-75
2023/03/18 06:29:35;;;;;;;7.47;4.07;;;1.60;93.90;;;;;;4974253;28;20584;-75
2023/03/18 06:32:01;;;;;;;5.20;4.63;;;1.70;93.70;;;;;;4975491;28;20189;-76
2023/03/18 06:34:31;;;;;;;7.97;3.70;;;1.70;93.60;;;;;;4968308;28;20300;-75
2023/03/18 06:36:58;;;;;;;5.13;3.40;;;1.70;92.70;;;;;;4962101;28;20202;-75
2023/03/18 06:39:24;;;;;;;4.20;3.50;;;1.70;92.80;;;;;;4962491;28;20202;-74
2023/03/18 06:41:51;;;;;;;6.40;4.60;;;1.80;92.70;;;;;;4970788;28;20210;-74
2023/03/18 06:44:18;;;;;;;8.70;4.00;;;1.80;92.70;;;;;;4970620;28;20651;-74
2023/03/18 06:46:44;;;;;;;5.67;4.27;;;1.80;92.70;;;;;;4977693;28;20249;-74
2023/03/18 06:49:10;;;;;;;7.83;3.80;;;1.90;92.80;;;;;;4980178;28;20229;-73
2023/03/18 06:51:36;;;;;;;5.43;4.13;;;2.00;92.90;;;;;;4978214;28;20201;-74
2023/03/18 06:54:01;;;;;;;5.67;4.50;;;2.00;92.80;;;;;;4977744;28;20757;-74
2023/03/18 06:56:27;;;;;;;9.87;5.07;;;2.10;92.50;;;;;;4977124;28;20702;-74
2023/03/18 06:58:53;;;;;;;6.23;4.97;;;2.20;92.50;;;;;;4978420;28;20751;-74
2023/03/18 07:01:19;;;;;;;6.70;4.57;;;2.30;92.50;;;;;;4976246;28;20705;-74
2023/03/18 07:03:45;;;;;;;8.63;4.87;;;2.40;92.40;;;;;;4980514;28;20193;-76
2023/03/18 07:06:11;;;;;;;9.97;4.23;;;2.40;92.30;;;;;;4976240;28;20233;-75
2023/03/18 07:08:37;;;;;;;8.00;5.10;;;2.50;92.10;;;;;;4979950;28;20190;-74
2023/03/18 07:11:05;;;;;;;7.90;4.70;;;2.60;91.60;;;;;;4973319;28;20205;-74
2023/03/18 07:13:32;;;;;;;7.17;5.30;;;2.70;91.30;;;;;;4978796;28;20209;-75
2023/03/18 07:15:59;;;;;;;8.40;4.70;;;2.70;91.20;;;;;;4978302;28;20225;-75
2023/03/18 07:18:25;;;;;;;7.90;4.97;;;2.80;90.70;;;;;;4975517;28;20205;-75
2023/03/18 07:20:51;;;;;;;7.03;5.00;;;2.90;90.90;;;;;;4976311;28;20663;-75
2023/03/18 07:23:17;;;;;;;7.90;4.60;;;3.00;90.70;;;;;;4978235;28;20229;-76
2023/03/18 07:25:43;;;;;;;6.33;5.23;;;3.00;90.40;;;;;;4979511;28;20240;-75
2023/03/18 07:28:09;;;;;;;6.63;4.47;;;3.10;90.40;;;;;;4975866;28;21846;-75
2023/03/18 07:30:36;;;;;;;7.97;4.73;;;3.20;90.40;;;;;;4975415;28;20202;-75
2023/03/18 07:33:03;;;;;;;7.17;5.60;;;3.30;90.10;;;;;;4976907;28;20327;-76
2023/03/18 07:35:29;;;;;;;6.97;4.70;;;3.40;89.90;;;;;;4974901;28;20751;-75
2023/03/18 07:37:56;;;;;;;10.73;5.17;;;3.50;89.80;;;;;;4972343;28;20280;-74
2023/03/18 07:40:23;;;;;;;10.93;5.43;;;3.60;89.50;;;;;;4976787;28;20201;-74
2023/03/18 07:42:52;;;;;;;7.87;5.60;;;3.80;89.30;;;;;;4978029;28;20578;-75
2023/03/18 07:45:19;;;;;;;4.87;4.37;;;3.90;89.00;;;;;;4975688;28;20218;-75
2023/03/18 07:47:45;;;;;;;8.97;5.13;;;4.00;88.30;;;;;;4975132;28;20618;-74
2023/03/18 07:50:12;;;;;;;12.50;5.10;;;4.20;88.30;;;;;;4978414;28;20206;-75
2023/03/18 07:52:38;;;;;;;7.23;5.27;;;4.30;87.90;;;;;;4972767;28;20221;-75
2023/03/18 07:55:04;;;;;;;8.47;5.60;;;4.40;87.30;;;;;;4980154;28;20202;-74
2023/03/18 07:57:30;;;;;;;12.40;6.73;;;4.60;86.90;;;;;;4974650;28;20210;-74
2023/03/18 07:59:56;;;;;;;8.17;6.20;;;4.80;86.00;;;;;;4975476;28;20209;-73
2023/03/18 08:02:22;;;;;;;8.83;5.17;;;4.90;85.40;;;;;;4972509;28;20684;-75
2023/03/18 08:04:48;;;;;;;10.73;6.43;;;5.10;84.20;;;;;;4975168;28;20717;-74
2023/03/18 08:07:14;;;;;;;7.97;5.13;;;5.30;84.10;;;;;;4977099;28;20232;-74
2023/03/18 08:09:40;;;;;;;7.97;6.10;;;5.40;82.90;;;;;;4977811;28;20206;-74
2023/03/18 08:12:06;;;;;;;9.87;5.77;;;5.70;81.90;;;;;;4974378;28;20272;-74
2023/03/18 08:14:31;;;;;;;7.60;5.77;;;6.00;80.90;;;;;;4979466;28;20202;-74
2023/03/18 08:16:57;;;;;;;12.83;6.27;;;6.50;80.10;;;;;;4978619;28;20210;-74
2023/03/18 08:19:23;;;;;;;10.83;6.87;;;6.90;78.40;;;;;;4975737;28;20859;-74
2023/03/18 08:21:48;;;;;;;12.47;6.13;;;7.40;77.20;;;;;;4978473;28;20220;-74
2023/03/18 08:24:14;;;;;;;9.67;6.70;;;8.00;75.30;;;;;;4976228;28;20205;-74
2023/03/18 08:26:40;;;;;;;9.50;6.23;;;8.70;74.50;;;;;;4979143;28;20311;-75
2023/03/18 08:29:06;;;;;;;12.90;7.43;;;9.60;73.30;;;;;;4972781;28;20302;-75
2023/03/18 08:31:31;;;;;;;11.73;6.77;;;10.70;71.10;;;;;;4971139;28;20912;-75
2023/03/18 08:33:58;;;;;;;11.33;6.53;;;11.90;67.80;;;;;;4974339;28;20707;-75
2023/03/18 08:36:24;;;;;;;8.98;6.18;;;12.90;67.70;;;;;;4975700;28;20202;-74
2023/03/18 08:38:50;;;;;;;10.93;6.43;;;13.90;63.80;;;;;;4974270;28;20217;-75
2023/03/18 08:41:21;;;;;;;11.38;6.55;;;14.60;63.20;;;;;;4973601;28;20225;-74
2023/03/18 08:43:46;;;;;;;12.90;7.57;;;15.40;61.20;;;;;;4973680;28;20206;-74
2023/03/18 08:46:13;;;;;;;10.55;7.68;;;16.10;61.00;;;;;;4978650;28;20233;-74
2023/03/18 08:48:40;;;;;;;9.98;7.10;;;16.90;58.70;;;;;;4974690;28;20214;-74
2023/03/18 08:51:12;;;;;;;11.35;7.55;;;17.60;58.40;;;;;;4976756;28;20210;-74
2023/03/18 08:53:38;;;;;;;13.65;8.13;;;18.30;56.10;;;;;;4976650;28;20210;-74
2023/03/18 08:56:05;;;;;;;11.18;6.97;;;19.20;55.60;;;;;;4975944;28;20659;-74
2023/03/18 08:58:31;;;;;;;9.95;7.05;;;19.50;54.90;;;;;;4969532;28;20198;-74
2023/03/18 09:00:58;;;;;;;8.75;7.10;;;19.60;52.80;;;;;;4979337;28;20208;-73
2023/03/18 09:03:24;;;;;;;14.65;6.55;;;20.10;52.10;;;;;;4992443;28;20213;-75
2023/03/18 09:05:51;;;;;;;10.00;6.40;;;20.50;53.10;;;;;;4971394;28;20209;-74
2023/03/18 09:08:17;;;;;;;8.68;5.97;;;20.90;52.50;;;;;;4976413;28;20807;-75
2023/03/18 09:10:44;;;;;;;7.60;6.25;;;21.20;51.90;;;;;;4968952;28;20210;-75
2023/03/18 09:13:11;;;;;;;11.73;6.88;;;21.30;51.70;;;;;;4965492;28;20249;-75
2023/03/18 09:15:37;;;;;;;10.35;5.97;;;21.70;50.10;;;;;;4965545;28;20206;-74
2023/03/18 09:18:03;;;;;;;8.32;6.38;;;22.20;49.90;;;;;;4967104;28;21053;-75
2023/03/18 09:20:29;;;;;;;8.45;5.35;;;22.90;50.80;;;;;;4967575;28;20205;-75
2023/03/18 09:22:54;;;;;;;6.45;5.68;;;23.80;51.20;;;;;;4972470;28;20199;-76
2023/03/18 09:25:20;;;;;;;5.55;4.97;;;24.50;49.20;;;;;;4974836;28;20293;-76
2023/03/18 09:27:46;;;;;;;3.95;3.70;;;25.20;49.30;;;;;;4976387;28;20232;-78
2023/03/18 09:30:13;;;;;;;5.18;4.78;;;25.80;48.70;;;;;;4974648;28;20209;-77
2023/03/18 09:32:38;;;;;;;4.15;3.80;;;26.20;47.60;;;;;;4975786;28;20711;-74
2023/03/18 09:35:05;;;;;;;3.72;3.47;;;26.60;46.60;;;;;;4976866;28;20206;-78
2023/03/18 09:37:31;;;;;;;3.22;2.92;;;27.00;46.60;;;;;;4979610;28;20202;-78
2023/03/18 09:39:57;;;;;;;2.55;2.35;;;27.40;46.70;;;;;;4978831;28;20211;-78
2023/03/18 09:43:01;;;;;;;2.88;2.65;;;27.90;46.60;;;;;;4975977;28;20289;-77
2023/03/18 09:45:43;;;;;;;3.47;3.17;;;28.20;44.50;;;;;;4960839;28;20324;-76
2023/03/18 09:48:45;;;;;;;2.92;2.83;;;28.60;43.90;;;;;;4959807;28;20245;-74
2023/03/18 09:51:37;;;;;;;3.40;3.08;;;28.60;40.50;;;;;;4940164;28;20288;-75
2023/03/18 09:54:11;;;;;;;3.35;3.15;;;28.50;41.60;;;;;;4940641;28;20297;-74
2023/03/18 09:56:38;;;;;;;3.00;2.90;;;28.30;45.10;;;;;;4942797;28;20230;-76
2023/03/18 09:59:20;;;;;;;3.60;3.28;;;28.40;45.10;;;;;;4941884;28;20224;-75
2023/03/18 10:01:53;;;;;;;3.38;2.80;;;28.50;43.90;;;;;;4941531;28;20288;-74
2023/03/18 10:04:31;;;;;;;2.25;2.15;;;28.70;43.40;;;;;;4925836;29;20643;-79
2023/03/18 10:07:04;;;;;;;2.47;2.30;;;28.90;42.20;;;;;;4941533;28;20226;-79
2023/03/18 10:09:43;;;;;;;1.45;1.35;;;29.20;44.90;;;;;;4941252;28;20232;-79
2023/03/18 10:12:20;;;;;;;1.75;1.75;;;28.80;44.10;;;;;;4937671;28;20697;-79
2023/03/18 10:14:53;;;;;;;2.33;2.22;;;28.70;44.50;;;;;;4939379;28;20222;-81
2023/03/18 10:17:42;;;;;;;2.33;2.13;;;28.80;44.20;;;;;;4943075;28;20219;-78
2023/03/18 10:20:18;;;;;;;1.85;1.85;;;29.10;42.40;;;;;;4943434;28;20206;-79
2023/03/18 10:22:51;;;;;;;1.92;1.83;;;28.90;42.60;;;;;;4931264;28;20235;-78
2023/03/18 10:25:23;;;;;;;3.05;1.67;;;28.90;42.90;;;;;;4948247;28;20220;-78
2023/03/18 10:27:54;;;;;;;2.03;1.90;;;28.90;42.40;;;;;;4978444;28;20294;-78
2023/03/18 10:30:48;;;;;;;1.67;1.58;;;28.30;41.90;;;;;;4979513;28;20201;-79
2023/03/18 10:33:39;;;;;;;1.60;1.55;;;27.30;40.50;;;;;;4983461;28;20222;-79
2023/03/18 10:36:08;;;;;;;1.98;1.95;;;26.50;43.60;;;;;;4982655;28;20428;-79
2023/03/18 10:38:43;;;;;;;1.53;1.53;;;26.20;44.50;;;;;;4986174;28;20369;-78
2023/03/18 10:41:17;;;;;;;1.48;1.48;;;26.20;40.10;;;;;;4981364;28;20193;-79
2023/03/18 10:43:46;;;;;;;1.98;1.88;;;26.30;43.10;;;;;;4977953;28;20579;-83
2023/03/18 10:46:14;;;;;;;2.20;2.10;;;26.50;45.80;;;;;;4980976;28;20466;-78
2023/03/18 10:48:51;;;;;;;1.48;1.48;;;26.30;45.70;;;;;;4969014;28;20557;-78
2023/03/18 10:51:53;;;;;;;1.50;1.40;;;25.70;43.10;;;;;;4969060;28;20667;-78
2023/03/18 10:54:41;;;;;;;0.95;0.95;;;24.50;40.10;;;;;;4966145;28;20214;-74
2023/03/18 10:57:13;;;;;;;1.17;1.17;;;23.50;41.10;;;;;;4972601;28;20217;-77
2023/03/18 10:59:39;;;;;;;1.80;1.80;;;22.40;41.90;;;;;;4978103;28;20423;-78
2023/03/18 11:02:18;;;;;;;1.50;1.40;;;22.00;47.30;;;;;;4978839;28;20224;-77
2023/03/18 11:04:50;;;;;;;1.20;1.20;;;22.50;46.70;;;;;;4980861;28;20205;-77
2023/03/18 11:07:25;;;;;;;1.30;1.27;;;22.80;44.10;;;;;;4979054;28;20251;-77
2023/03/18 11:09:51;;;;;;;1.17;1.17;;;22.70;43.80;;;;;;4971070;28;20205;-78
2023/03/18 11:12:21;;;;;;;1.30;1.30;;;22.30;43.60;;;;;;4973100;28;20205;-79
2023/03/18 11:14:48;;;;;;;0.88;0.88;;;21.80;43.40;;;;;;4981294;28;20236;-79
2023/03/18 11:17:36;;;;;;;1.40;1.30;;;21.10;44.30;;;;;;4979845;28;20205;-78
2023/03/18 11:20:06;;;;;;;1.20;1.10;;;20.20;44.90;;;;;;4990338;28;20213;-77
2023/03/18 11:22:35;;;;;;;1.67;1.48;;;19.40;45.50;;;;;;4991420;28;20307;-79
2023/03/18 11:25:02;;;;;;;1.77;1.77;;;18.60;45.90;;;;;;4986377;28;20826;-79
2023/03/18 11:27:36;;;;;;;1.50;1.40;;;17.80;48.40;;;;;;4982489;28;20463;-78
2023/03/18 11:30:21;;;;;;;1.73;1.10;;;17.10;48.30;;;;;;4980959;28;20715;-79
2023/03/18 11:33:01;;;;;;;1.70;0.95;;;16.90;49.30;;;;;;4981161;28;20754;-79
2023/03/18 11:35:53;;;;;;;1.00;1.00;;;17.60;49.80;;;;;;4978221;28;20212;-79
2023/03/18 11:38:28;;;;;;;1.00;1.00;;;18.80;46.70;;;;;;4976650;28;20205;-79
2023/03/18 11:41:12;;;;;;;0.85;0.77;;;20.00;44.70;;;;;;4983173;28;20908;-78
2023/03/18 11:43:38;;;;;;;1.00;1.00;;;21.20;43.70;;;;;;4990364;28;20209;-79
2023/03/18 11:46:13;;;;;;;1.02;1.02;;;21.90;44.00;;;;;;4987404;28;20222;-79
2023/03/18 11:48:41;;;;;;;1.35;1.35;;;22.90;42.20;;;;;;4992846;28;20292;-79
2023/03/18 11:51:31;;;;;;;0.77;0.77;;;23.40;42.00;;;;;;4983735;28;20256;-79
2023/03/18 11:54:22;;;;;;;1.10;1.10;;;24.00;41.00;;;;;;4934219;29;20355;-79
2023/03/18 11:56:56;;;;;;;1.02;0.90;;;24.10;41.30;;;;;;4929940;29;21199;-78
2023/03/18 11:59:36;;;;;;;0.88;0.88;;;23.90;41.10;;;;;;4932600;29;20705;-78
2023/03/18 12:02:41;;;;;;;1.67;1.08;;;23.60;41.90;;;;;;4932920;29;20227;-79
2023/03/18 12:05:16;;;;;;;0.80;0.80;;;23.60;41.60;;;;;;4933487;29;20310;-79
2023/03/18 12:07:56;;;;;;;0.80;0.80;;;23.90;41.10;;;;;;4937588;29;20236;-79
2023/03/18 12:10:35;;;;;;;3.03;0.80;;;24.10;40.60;;;;;;4935354;29;20219;-79
2023/03/18 12:13:39;;;;;;;1.40;0.82;;;24.30;42.30;;;;;;4939879;29;20286;-79
2023/03/18 12:16:32;;;;;;;0.85;0.70;;;24.30;40.40;;;;;;4937738;29;20218;-79
2023/03/18 12:19:16;;;;;;;1.02;1.02;;;23.50;39.60;;;;;;4920455;29;20220;-80
2023/03/18 12:21:53;;;;;;;1.05;1.05;;;22.30;41.20;;;;;;4931873;29;20222;-79
2023/03/18 12:24:34;;;;;;;1.10;1.10;;;21.50;42.80;;;;;;4922321;29;20215;-80
2023/03/18 12:27:35;;;;;;;1.90;1.13;;;20.70;43.90;;;;;;4924228;29;20227;-80
2023/03/18 12:30:31;;;;;;;1.02;1.02;;;20.30;42.90;;;;;;4923762;28;20210;-79
2023/03/18 12:33:03;;;;;;;0.88;0.88;;;20.50;44.90;;;;;;4977479;28;20214;-79
2023/03/18 12:35:41;;;;;;;0.80;0.80;;;20.80;44.20;;;;;;4994449;28;20205;-80
2023/03/18 12:38:23;;;;;;;2.22;1.02;;;21.30;44.70;;;;;;4988496;28;20284;-77
2023/03/18 12:41:20;;;;;;;1.20;1.05;;;22.00;43.10;;;;;;4978356;28;20791;-79
2023/03/18 12:43:59;;;;;;;0.70;0.70;;;22.80;41.90;;;;;;4972625;28;20221;-80
2023/03/18 12:46:35;;;;;;;1.00;1.00;;;23.70;41.80;;;;;;4977614;28;20443;-79
2023/03/18 12:49:13;;;;;;;1.10;1.10;;;24.20;41.10;;;;;;4979647;28;20207;-80
2023/03/18 12:52:12;;;;;;;1.38;1.27;;;24.60;41.60;;;;;;4979370;28;20750;-78
2023/03/18 12:55:02;;;;;;;1.10;1.10;;;25.00;39.50;;;;;;4977683;28;20288;-79
2023/03/18 12:57:48;;;;;;;1.73;0.93;;;25.40;38.90;;;;;;4945281;29;20687;-79
2023/03/18 13:00:33;;;;;;;1.13;1.08;;;25.60;41.20;;;;;;4948169;29;20226;-79
2023/03/18 13:03:14;;;;;;;0.85;0.85;;;25.90;38.10;;;;;;4940129;29;20719;-75
2023/03/18 13:05:51;;;;;;;1.02;1.02;;;25.50;40.50;;;;;;4938247;28;20270;-77
2023/03/18 13:08:54;;;;;;;0.77;0.77;;;24.50;39.80;;;;;;4940977;29;20327;-77